createdAt,value
2019-06-15T00:02:22.606Z,8.10
2019-06-15T00:04:51.277Z,8.10
2019-06-15T00:07:19.874Z,8.03
2019-06-15T00:09:48.412Z,8.30
2019-06-15T00:12:17.005Z,8.50
2019-06-15T00:14:45.689Z,8.57
2019-06-15T00:17:14.346Z,8.90
2019-06-15T00:19:42.959Z,8.80
2019-06-15T00:22:11.513Z,8.43
2019-06-15T00:24:40.030Z,8.67
2019-06-15T00:27:08.644Z,9.07
2019-06-15T00:29:37.165Z,8.80
2019-06-15T00:32:16.215Z,8.67
2019-06-15T00:34:44.895Z,8.93
2019-06-15T00:37:13.517Z,8.90
2019-06-15T00:39:42.066Z,9.00
2019-06-15T00:42:12.877Z,8.43
2019-06-15T00:44:41.358Z,8.97
2019-06-15T00:47:09.867Z,8.80
2019-06-15T00:49:38.495Z,9.07
2019-06-15T00:52:07.035Z,9.50
2019-06-15T00:54:47.330Z,8.73
2019-06-15T00:57:05.711Z,9.20
2019-06-15T00:59:34.381Z,9.07
2019-06-15T01:02:02.907Z,9.03
2019-06-15T01:04:31.710Z,9.17
2019-06-15T01:07:00.319Z,8.90
2019-06-15T01:09:28.834Z,9.40
2019-06-15T01:11:57.444Z,9.27
2019-06-15T01:14:26.057Z,9.50
2019-06-15T01:16:54.584Z,9.67
2019-06-15T01:19:23.267Z,9.40
2019-06-15T01:21:51.798Z,9.33
2019-06-15T01:24:20.363Z,9.47
2019-06-15T01:26:48.918Z,9.17
2019-06-15T01:29:17.533Z,9.53
2019-06-15T01:31:46.250Z,9.30
2019-06-15T01:34:14.821Z,9.53
2019-06-15T01:36:43.431Z,9.83
2019-06-15T01:39:11.953Z,10.07
2019-06-15T01:41:42.697Z,9.63
2019-06-15T01:44:11.339Z,9.57
2019-06-15T01:46:39.836Z,9.60
2019-06-15T01:49:08.464Z,10.00
2019-06-15T01:51:37.062Z,10.10
2019-06-15T01:54:05.559Z,10.10
2019-06-15T01:56:34.185Z,10.27
2019-06-15T01:59:02.808Z,10.30
2019-06-15T02:01:31.480Z,9.80
2019-06-15T02:04:00.091Z,9.93
2019-06-15T02:06:28.625Z,9.70
2019-06-15T02:08:57.131Z,9.53
2019-06-15T02:11:25.728Z,9.60
2019-06-15T02:13:54.303Z,9.97
2019-06-15T02:16:22.910Z,9.87
2019-06-15T02:18:51.462Z,10.20
2019-06-15T02:21:20.036Z,10.23
2019-06-15T02:23:48.646Z,10.17
2019-06-15T02:26:17.257Z,10.53
2019-06-15T02:28:45.831Z,9.93
2019-06-15T02:31:14.426Z,9.40
2019-06-15T02:33:42.933Z,10.43
2019-06-15T02:36:11.538Z,10.67
2019-06-15T02:38:40.145Z,10.27
2019-06-15T02:41:09.045Z,9.70
2019-06-15T02:43:38.037Z,9.77
2019-06-15T02:46:06.727Z,10.63
2019-06-15T02:48:35.246Z,10.27
2019-06-15T02:51:04.079Z,10.10
2019-06-15T02:53:32.649Z,10.43
2019-06-15T02:56:01.235Z,11.00
2019-06-15T02:58:29.774Z,10.97
2019-06-15T03:01:00.557Z,11.33
2019-06-15T03:03:29.122Z,11.20
2019-06-15T03:05:59.058Z,10.33
2019-06-15T03:08:27.623Z,11.10
2019-06-15T03:10:56.255Z,11.10
2019-06-15T03:13:24.956Z,10.50
2019-06-15T03:15:53.721Z,10.63
2019-06-15T03:18:22.361Z,11.17
2019-06-15T03:20:50.996Z,11.13
2019-06-15T03:23:19.569Z,10.70
2019-06-15T03:25:48.234Z,11.43
2019-06-15T03:28:16.851Z,11.37
2019-06-15T03:30:45.494Z,11.50
2019-06-15T03:33:14.047Z,10.83
2019-06-15T03:35:42.646Z,11.17
2019-06-15T03:38:11.272Z,11.73
2019-06-15T03:40:40.289Z,11.80
2019-06-15T03:43:08.883Z,12.60
2019-06-15T03:45:37.475Z,12.00
2019-06-15T03:48:06.065Z,12.00
2019-06-15T03:50:34.759Z,12.10
2019-06-15T03:53:03.352Z,12.47
2019-06-15T03:55:31.858Z,11.93
2019-06-15T03:58:00.484Z,12.17
2019-06-15T04:00:35.123Z,12.93
2019-06-15T04:03:03.716Z,12.90
2019-06-15T04:05:32.257Z,12.23
2019-06-15T04:08:00.836Z,11.30
2019-06-15T04:10:29.376Z,12.03
2019-06-15T04:12:57.965Z,12.47
2019-06-15T04:15:26.510Z,11.80
2019-06-15T04:17:55.080Z,12.67
2019-06-15T04:20:23.711Z,12.00
2019-06-15T04:22:52.341Z,12.60
2019-06-15T04:25:20.821Z,12.67
2019-06-15T04:27:49.340Z,13.17
2019-06-15T04:30:18.125Z,13.07
2019-06-15T04:32:46.657Z,12.17
2019-06-15T04:35:15.315Z,12.47
2019-06-15T04:37:43.940Z,12.40
2019-06-15T04:40:12.578Z,12.07
2019-06-15T04:42:41.094Z,12.57
2019-06-15T04:45:09.779Z,12.33
2019-06-15T04:47:38.447Z,12.27
2019-06-15T04:50:07.453Z,12.27
2019-06-15T04:52:35.977Z,11.70
2019-06-15T04:55:04.941Z,12.47
2019-06-15T04:57:35.799Z,11.83
2019-06-15T05:00:05.533Z,11.13
2019-06-15T05:02:34.126Z,11.53
2019-06-15T05:05:02.650Z,10.87
2019-06-15T05:07:31.257Z,11.33
2019-06-15T05:09:59.803Z,10.73
2019-06-15T05:12:28.426Z,10.70
2019-06-15T05:14:57.018Z,10.93
2019-06-15T05:17:25.529Z,10.53
2019-06-15T05:19:54.041Z,10.40
2019-06-15T05:22:22.595Z,10.27
2019-06-15T05:24:51.788Z,11.07
2019-06-15T05:27:20.457Z,10.80
2019-06-15T05:29:49.057Z,10.57
2019-06-15T05:32:17.609Z,10.67
2019-06-15T05:34:46.204Z,10.57
2019-06-15T05:37:14.865Z,10.53
2019-06-15T05:39:43.439Z,10.53
2019-06-15T05:42:12.191Z,10.50
2019-06-15T05:44:40.733Z,10.17
2019-06-15T05:47:09.342Z,10.50
2019-06-15T05:49:37.936Z,10.50
2019-06-15T05:52:06.654Z,9.63
2019-06-15T05:54:35.177Z,9.70
2019-06-15T05:57:03.779Z,9.43
2019-06-15T05:59:32.325Z,9.73
2019-06-15T06:02:00.871Z,10.00
2019-06-15T06:04:29.468Z,9.57
2019-06-15T06:06:58.021Z,9.27
2019-06-15T06:09:26.616Z,9.60
2019-06-15T06:11:55.193Z,9.70
2019-06-15T06:14:23.824Z,8.73
2019-06-15T06:16:52.452Z,9.20
2019-06-15T06:19:21.063Z,9.33
2019-06-15T06:21:49.715Z,8.73
2019-06-15T06:24:18.345Z,9.33
2019-06-15T06:26:46.998Z,9.07
2019-06-15T06:29:15.515Z,9.43
2019-06-15T06:31:44.125Z,9.40
2019-06-15T06:34:14.174Z,9.73
2019-06-15T06:36:42.855Z,9.47
2019-06-15T06:39:11.688Z,8.97
2019-06-15T06:44:14.592Z,8.67
2019-06-15T06:46:43.116Z,8.90
2019-06-15T06:49:12.754Z,9.40
2019-06-15T06:51:41.412Z,8.80
2019-06-15T06:54:09.920Z,9.03
2019-06-15T06:56:38.479Z,9.70
2019-06-15T06:59:07.119Z,9.43
2019-06-15T07:01:36.073Z,9.60
2019-06-15T07:04:04.721Z,9.37
2019-06-15T07:06:33.339Z,9.30
2019-06-15T07:09:02.491Z,9.23
2019-06-15T07:11:31.557Z,9.00
2019-06-15T07:14:01.920Z,9.07
2019-06-15T07:16:31.214Z,9.47
2019-06-15T07:19:00.405Z,9.87
2019-06-15T07:21:29.607Z,8.90
2019-06-15T07:24:08.642Z,9.67
2019-06-15T07:26:33.788Z,9.83
2019-06-15T07:29:02.893Z,9.97
2019-06-15T07:31:32.286Z,9.80
2019-06-15T07:34:01.429Z,9.30
2019-06-15T07:36:30.885Z,9.90
2019-06-15T07:38:59.882Z,9.83
2019-06-15T07:41:28.970Z,10.33
2019-06-15T07:43:58.137Z,9.60
2019-06-15T07:46:27.213Z,9.30
2019-06-15T07:48:56.425Z,9.80
2019-06-15T07:51:25.566Z,9.50
2019-06-15T07:53:54.567Z,9.37
2019-06-15T07:56:23.745Z,9.57
2019-06-15T07:58:53.187Z,10.03
2019-06-15T08:01:22.393Z,9.43
2019-06-15T08:03:57.722Z,10.07
2019-06-15T08:06:26.981Z,9.80
2019-06-15T08:08:56.037Z,9.00
2019-06-15T08:11:25.336Z,9.50
2019-06-15T08:13:54.410Z,10.40
2019-06-15T08:16:23.975Z,10.30
2019-06-15T08:18:53.245Z,10.77
2019-06-15T08:21:22.340Z,9.70
2019-06-15T08:23:51.566Z,9.90
2019-06-15T08:26:20.760Z,10.10
2019-06-15T08:28:49.727Z,10.80
2019-06-15T08:31:28.119Z,10.07
2019-06-15T08:33:57.180Z,10.20
2019-06-15T08:36:26.289Z,10.77
2019-06-15T08:38:55.396Z,10.43
2019-06-15T08:41:24.506Z,9.40
2019-06-15T08:43:53.551Z,10.73
2019-06-15T08:46:22.611Z,10.43
2019-06-15T08:48:51.743Z,10.50
2019-06-15T08:51:20.707Z,10.97
2019-06-15T08:53:50.071Z,10.90
2019-06-15T08:56:19.887Z,10.27
2019-06-15T08:58:55.453Z,10.47
2019-06-15T09:01:19.682Z,10.97
2019-06-15T09:03:49.553Z,10.80
2019-06-15T09:06:18.668Z,10.83
2019-06-15T09:08:47.719Z,10.20
2019-06-15T09:11:17.436Z,10.07
2019-06-15T09:13:46.530Z,10.70
2019-06-15T09:16:15.725Z,10.30
2019-06-15T09:18:44.763Z,10.50
2019-06-15T09:21:13.849Z,10.93
2019-06-15T09:23:43.001Z,11.43
2019-06-15T09:26:11.978Z,10.83
2019-06-15T09:28:41.101Z,11.23
2019-06-15T09:31:10.153Z,11.07
2019-06-15T09:33:39.167Z,11.97
2019-06-15T09:36:08.167Z,11.30
2019-06-15T09:38:37.340Z,11.50
2019-06-15T09:41:06.600Z,11.20
2019-06-15T09:43:35.676Z,11.90
2019-06-15T09:46:04.815Z,11.80
2019-06-15T09:48:34.190Z,11.80
2019-06-15T09:51:03.320Z,12.33
2019-06-15T09:53:32.299Z,11.70
2019-06-15T09:56:01.769Z,11.63
2019-06-15T09:58:30.869Z,11.50
2019-06-15T10:01:00.080Z,11.83
2019-06-15T10:03:29.205Z,11.20
2019-06-15T10:05:58.549Z,12.07
2019-06-15T10:08:27.621Z,11.63
2019-06-15T10:10:56.782Z,10.93
2019-06-15T10:13:25.756Z,11.80
2019-06-15T10:15:54.995Z,11.60
2019-06-15T10:18:24.037Z,11.70
2019-06-15T10:20:53.620Z,11.40
2019-06-15T10:23:22.792Z,11.17
2019-06-15T10:25:56.227Z,11.53
2019-06-15T10:28:25.284Z,11.80
2019-06-15T10:30:54.467Z,11.83
2019-06-15T10:33:23.624Z,11.47
2019-06-15T10:35:52.717Z,11.47
2019-06-15T10:38:21.856Z,11.40
2019-06-15T10:40:52.042Z,11.07
2019-06-15T10:43:21.335Z,11.27
2019-06-15T10:45:50.405Z,11.80
2019-06-15T10:48:19.530Z,12.03
2019-06-15T10:50:48.702Z,12.90
2019-06-15T10:53:17.817Z,11.87
2019-06-15T10:55:49.126Z,11.70
2019-06-15T10:58:34.713Z,12.20
2019-06-15T11:01:03.960Z,12.07
2019-06-15T11:03:33.115Z,12.97
2019-06-15T11:06:05.395Z,11.57
2019-06-15T11:08:34.629Z,12.17
2019-06-15T11:11:21.769Z,13.10
2019-06-15T11:14:01.370Z,13.70
2019-06-15T11:16:30.764Z,12.17
2019-06-15T11:19:00.681Z,12.93
2019-06-15T11:21:29.892Z,13.20
2019-06-15T11:24:00.275Z,12.93
2019-06-15T11:26:36.918Z,12.70
2019-06-15T11:29:11.398Z,13.27
2019-06-15T11:31:47.053Z,13.77
2019-06-15T11:34:26.898Z,13.97
2019-06-15T11:36:56.102Z,13.90
2019-06-15T11:39:25.258Z,14.03
2019-06-15T11:41:54.370Z,13.07
2019-06-15T11:45:01.982Z,13.73
2019-06-15T11:47:31.126Z,13.33
2019-06-15T11:50:15.364Z,13.80
2019-06-15T11:52:44.845Z,13.47
2019-06-15T11:55:14.173Z,12.87
2019-06-15T11:57:43.582Z,12.83
2019-06-15T12:00:26.877Z,13.37
2019-06-15T12:02:46.386Z,14.00
2019-06-15T12:06:03.771Z,12.67
2019-06-15T12:08:54.664Z,13.70
2019-06-15T12:11:32.748Z,12.40
2019-06-15T12:14:30.246Z,11.37
2019-06-15T12:17:07.086Z,11.37
2019-06-15T12:19:36.519Z,11.57
2019-06-15T12:22:06.754Z,11.87
2019-06-15T12:24:36.149Z,12.37
2019-06-15T12:27:05.734Z,11.70
2019-06-15T12:29:50.091Z,11.67
2019-06-15T12:36:32.128Z,11.33
2019-06-15T12:39:01.281Z,10.93
2019-06-15T12:41:30.704Z,11.13
2019-06-15T12:43:59.797Z,11.50
2019-06-15T12:46:28.961Z,10.50
2019-06-15T12:48:58.226Z,11.63
2019-06-15T12:51:27.371Z,11.70
2019-06-15T12:53:56.453Z,11.30
2019-06-15T12:56:26.219Z,11.90
2019-06-15T12:58:55.486Z,12.37
2019-06-15T13:01:24.667Z,11.47
2019-06-15T13:03:53.676Z,11.30
2019-06-15T13:06:25.040Z,11.27
2019-06-15T13:09:29.566Z,10.70
2019-06-15T13:11:59.175Z,9.00
2019-06-15T13:14:28.607Z,8.03
2019-06-15T13:16:57.958Z,7.33
2019-06-15T13:19:27.037Z,7.63
2019-06-15T13:21:56.046Z,7.50
2019-06-15T13:24:25.106Z,8.30
2019-06-15T13:26:54.161Z,7.57
2019-06-15T13:29:23.351Z,7.73
2019-06-15T13:31:52.534Z,8.77
2019-06-15T13:34:21.780Z,8.47
2019-06-15T13:36:50.916Z,8.40
2019-06-15T13:39:19.997Z,8.37
2019-06-15T13:41:49.027Z,8.43
2019-06-15T13:44:18.275Z,8.37
2019-06-15T13:46:47.224Z,8.10
2019-06-15T13:49:17.102Z,7.77
2019-06-15T13:51:46.239Z,8.03
2019-06-15T13:54:17.754Z,7.17
2019-06-15T13:56:46.805Z,6.47
2019-06-15T13:59:16.127Z,6.20
2019-06-15T14:01:45.409Z,5.80
2019-06-15T14:04:14.548Z,6.37
2019-06-15T14:06:43.764Z,5.90
2019-06-15T14:09:13.016Z,5.80
2019-06-15T14:11:42.332Z,5.73
2019-06-15T14:14:11.438Z,5.70
2019-06-15T14:16:40.596Z,5.50
2019-06-15T14:19:09.855Z,5.03
2019-06-15T14:21:38.873Z,5.10
2019-06-15T14:24:07.897Z,5.40
2019-06-15T14:26:37.195Z,5.17
2019-06-15T14:29:06.373Z,4.80
2019-06-15T14:31:49.352Z,5.30
2019-06-15T14:34:06.320Z,5.23
2019-06-15T14:36:35.555Z,5.20
2019-06-15T14:39:06.398Z,5.57
2019-06-15T14:41:37.000Z,4.97
2019-06-15T14:44:06.080Z,5.00
2019-06-15T14:46:35.161Z,6.50
2019-06-15T14:49:04.252Z,5.60
2019-06-15T14:51:33.427Z,5.30
2019-06-15T14:54:02.610Z,5.43
2019-06-15T14:56:31.896Z,5.97
2019-06-15T14:59:01.046Z,6.20
2019-06-15T15:01:30.521Z,5.77
2019-06-15T15:03:59.691Z,6.17
2019-06-15T15:06:28.767Z,6.13
2019-06-15T15:08:57.836Z,5.70
2019-06-15T15:11:26.925Z,5.73
2019-06-15T15:13:58.734Z,6.20
2019-06-15T15:16:27.930Z,6.07
2019-06-15T15:18:57.271Z,6.30
2019-06-15T15:21:26.625Z,5.93
2019-06-15T15:23:57.104Z,6.50
2019-06-15T15:26:26.631Z,6.27
2019-06-15T15:28:56.646Z,6.87
2019-06-15T15:31:27.226Z,7.17
2019-06-15T15:33:56.664Z,7.33
2019-06-15T15:36:26.410Z,7.53
2019-06-15T15:38:56.067Z,7.53
2019-06-15T15:41:26.608Z,7.57
2019-06-15T15:43:56.003Z,8.00
2019-06-15T15:46:25.181Z,7.00
2019-06-15T15:48:56.796Z,6.83
2019-06-15T15:51:26.168Z,6.50
2019-06-15T15:53:56.731Z,5.80
2019-06-15T15:56:27.290Z,6.10
2019-06-15T15:58:56.772Z,6.07
2019-06-15T16:01:26.407Z,5.43
2019-06-15T16:03:56.259Z,6.40
2019-06-15T16:06:26.063Z,6.00
2019-06-15T16:08:56.975Z,5.20
2019-06-15T16:11:26.653Z,4.83
2019-06-15T16:13:56.481Z,4.97
2019-06-15T16:16:26.678Z,4.90
2019-06-15T16:18:56.200Z,5.20
2019-06-15T16:21:26.038Z,5.50
2019-06-15T16:23:58.191Z,5.03
2019-06-15T16:26:27.269Z,5.67
2019-06-15T16:28:56.493Z,5.50
2019-06-15T16:31:28.487Z,5.73
2019-06-15T16:33:56.217Z,6.17
2019-06-15T16:36:25.290Z,6.20
2019-06-15T16:38:54.625Z,5.80
2019-06-15T16:41:25.404Z,6.00
2019-06-15T16:43:53.425Z,6.20
2019-06-15T16:46:21.960Z,6.70
2019-06-15T16:48:50.555Z,6.23
2019-06-15T16:51:19.197Z,6.40
2019-06-15T16:53:47.877Z,6.40
2019-06-15T16:56:16.726Z,6.17
2019-06-15T16:58:46.817Z,6.30
2019-06-15T17:01:16.861Z,6.53
2019-06-15T17:03:47.052Z,6.50
2019-06-15T17:06:15.893Z,6.20
2019-06-15T17:08:46.461Z,5.97
2019-06-15T17:11:17.096Z,6.00
2019-06-15T17:13:47.453Z,6.13
2019-06-15T17:16:16.752Z,5.47
2019-06-15T17:18:47.039Z,5.90
2019-06-15T17:21:17.048Z,5.57
2019-06-15T17:23:46.841Z,6.00
2019-06-15T17:26:16.908Z,5.50
2019-06-15T17:28:48.747Z,5.00
2019-06-15T17:31:17.623Z,5.20
2019-06-15T17:33:46.937Z,4.23
2019-06-15T17:36:15.857Z,4.40
2019-06-15T17:38:46.234Z,4.77
2019-06-15T17:41:17.169Z,4.10
2019-06-15T17:43:47.345Z,4.10
2019-06-15T17:46:16.531Z,4.53
2019-06-15T17:48:46.705Z,4.40
2019-06-15T17:51:16.041Z,3.90
2019-06-15T17:53:47.412Z,4.73
2019-06-15T17:56:16.285Z,4.00
2019-06-15T17:58:46.385Z,3.97
2019-06-15T18:01:17.235Z,4.50
2019-06-15T18:03:54.569Z,4.40
2019-06-15T18:06:21.708Z,4.20
2019-06-15T18:08:50.322Z,4.57
2019-06-15T18:11:18.883Z,4.50
2019-06-15T18:13:47.497Z,4.53
2019-06-15T18:16:16.146Z,4.70
2019-06-15T18:18:44.777Z,4.13
2019-06-15T18:21:15.803Z,4.30
2019-06-15T18:23:46.241Z,3.80
2019-06-15T18:26:15.963Z,4.07
2019-06-15T18:28:44.009Z,3.73
2019-06-15T18:31:12.584Z,4.03
2019-06-15T18:33:41.168Z,5.00
2019-06-15T18:36:10.165Z,4.60
2019-06-15T18:38:39.561Z,4.37
2019-06-15T18:41:08.224Z,4.10
2019-06-15T18:43:36.858Z,4.57
2019-06-15T18:46:07.204Z,3.93
2019-06-15T18:48:36.159Z,4.83
2019-06-15T18:51:07.395Z,5.37
2019-06-15T18:53:38.939Z,4.90
2019-06-15T18:56:06.975Z,4.70
2019-06-15T18:58:37.209Z,4.17
2019-06-15T19:01:06.899Z,4.27
2019-06-15T19:03:47.046Z,4.10
2019-06-15T19:06:16.801Z,4.03
2019-06-15T19:08:47.556Z,4.17
2019-06-15T19:11:16.577Z,4.40
2019-06-15T19:13:46.589Z,4.03
2019-06-15T19:16:16.674Z,3.37
2019-06-15T19:18:46.285Z,3.60
2019-06-15T19:21:16.939Z,3.53
2019-06-15T19:23:46.992Z,3.80
2019-06-15T19:26:16.770Z,5.10
2019-06-15T19:28:45.941Z,3.47
2019-06-15T19:31:14.651Z,3.83
2019-06-15T19:33:43.296Z,3.70
2019-06-15T19:36:11.851Z,4.00
2019-06-15T19:38:40.415Z,3.93
2019-06-15T19:41:09.135Z,4.30
2019-06-15T19:43:37.841Z,3.63
2019-06-15T19:46:06.908Z,4.07
2019-06-15T19:48:36.897Z,3.67
2019-06-15T19:51:05.800Z,4.37
2019-06-15T19:53:36.407Z,3.93
2019-06-15T19:56:06.759Z,4.10
2019-06-15T19:58:35.012Z,3.73
2019-06-15T20:01:03.773Z,3.90
2019-06-15T20:03:32.336Z,4.63
2019-06-15T20:06:00.949Z,6.10
2019-06-15T20:08:29.603Z,4.90
2019-06-15T20:10:58.105Z,5.30
2019-06-15T20:13:26.662Z,5.43
2019-06-15T20:15:57.297Z,5.17
2019-06-15T20:18:26.834Z,4.43
2019-06-15T20:20:56.320Z,4.27
2019-06-15T20:23:26.480Z,4.07
2019-06-15T20:25:55.907Z,4.90
2019-06-15T20:28:27.106Z,3.93
2019-06-15T20:30:56.975Z,4.13
2019-06-15T20:33:26.074Z,4.70
2019-06-15T20:35:57.187Z,4.40
2019-06-15T20:38:26.935Z,4.37
2019-06-15T20:40:56.551Z,4.20
2019-06-15T20:43:27.390Z,4.60
2019-06-15T20:45:56.163Z,4.10
2019-06-15T20:48:26.845Z,4.10
2019-06-15T20:50:56.746Z,4.40
2019-06-15T20:53:25.607Z,4.00
2019-06-15T20:55:54.139Z,4.20
2019-06-15T20:58:22.740Z,4.47
2019-06-15T21:00:51.378Z,4.50
2019-06-15T21:03:19.866Z,4.23
2019-06-15T21:05:48.426Z,4.13
2019-06-15T21:08:17.173Z,4.27
2019-06-15T21:10:46.444Z,4.73
2019-06-15T21:13:16.987Z,4.00
2019-06-15T21:15:47.374Z,4.23
2019-06-15T21:18:16.297Z,4.53
2019-06-15T21:20:47.096Z,5.90
2019-06-15T21:23:16.252Z,4.20
2019-06-15T21:25:46.693Z,4.87
2019-06-15T21:28:16.916Z,4.17
2019-06-15T21:30:47.068Z,6.90
2019-06-15T21:33:15.801Z,4.40
2019-06-15T21:35:51.635Z,4.33
2019-06-15T21:38:16.390Z,3.67
2019-06-15T21:40:47.588Z,4.93
2019-06-15T21:43:15.493Z,2.67
2019-06-15T21:45:46.120Z,2.77
2019-06-15T21:48:14.291Z,2.43
2019-06-15T21:50:42.808Z,2.80
2019-06-15T21:53:11.364Z,2.30
2019-06-15T21:55:40.024Z,2.20
2019-06-15T21:58:08.527Z,1.90
2019-06-15T22:00:48.035Z,2.40
2019-06-15T22:03:17.019Z,1.90
2019-06-15T22:05:47.282Z,1.90
2019-06-15T22:08:17.062Z,2.07
2019-06-15T22:10:47.292Z,1.70
2019-06-15T22:13:16.133Z,1.90
2019-06-15T22:15:46.919Z,1.70
2019-06-15T22:18:16.448Z,17.77
2019-06-15T22:20:47.088Z,4.33
2019-06-15T22:23:16.390Z,1.70
2019-06-15T22:25:46.412Z,13.73
2019-06-15T22:28:16.435Z,1.80
2019-06-15T22:30:46.186Z,1.37
2019-06-15T22:33:16.467Z,1.70
2019-06-15T22:35:47.561Z,1.37
2019-06-15T22:38:16.454Z,1.47
2019-06-15T22:40:47.017Z,1.53
2019-06-15T22:43:16.720Z,1.27
2019-06-15T22:45:49.782Z,1.40
2019-06-15T22:48:16.648Z,1.07
2019-06-15T22:50:46.796Z,1.10
2019-06-15T22:53:16.589Z,1.60
2019-06-15T22:55:50.633Z,1.30
2019-06-15T22:58:19.214Z,1.30
2019-06-15T23:00:51.294Z,1.13
2019-06-15T23:03:19.966Z,1.23
2019-06-15T23:05:48.740Z,1.07
2019-06-15T23:08:17.571Z,1.27
2019-06-15T23:10:46.850Z,1.00
2019-06-15T23:13:16.017Z,1.30
2019-06-15T23:15:47.032Z,1.00
2019-06-15T23:18:17.119Z,1.20
2019-06-15T23:20:46.325Z,1.00
2019-06-15T23:23:16.219Z,1.30
2019-06-15T23:25:47.032Z,1.43
2019-06-15T23:28:16.599Z,1.10
2019-06-15T23:30:47.217Z,1.17
2019-06-15T23:33:17.175Z,1.17
2019-06-15T23:35:51.509Z,1.20
2019-06-15T23:38:20.099Z,1.17
2019-06-15T23:40:48.717Z,1.20
2019-06-15T23:43:17.287Z,1.00
2019-06-15T23:45:46.863Z,1.00
2019-06-15T23:48:16.102Z,0.77
2019-06-15T23:50:46.319Z,0.90
2019-06-15T23:53:16.838Z,0.90
2019-06-15T23:55:47.336Z,1.13
